Time;durP1;ratioP1;P1;durP2;ratioP2;P2;SDS_P1;SDS_P2;PMS_P1;PMS_P2;Temp;Humidity;BMP_temperature;BMP_pressure;BME280_temperature;BME280_humidity;BME280_pressure;Samples;Min_cycle;Max_cycle;Signal;HPM_P1;HPM_P2
2022/08/23 00:00:42;;;;;;;4.900001;4.450001;;;;;;;12.05;77.72656;95272.85;;;;
2022/08/23 00:01:43;;;;;;;4.900001;4.450001;;;;;;;12.05;77.72656;95272.85;;;;
2022/08/23 00:02:45;;;;;;;4.900001;4.450001;;;;;;;12.05;77.72656;95272.85;;;;
2022/08/23 00:03:46;;;;;;;4.900001;4.450001;;;;;;;12.05;77.72656;95272.85;;;;
2022/08/23 00:04:47;;;;;;;4.900001;4.450001;;;;;;;12.05;77.72656;95272.85;;;;
2022/08/23 00:05:48;;;;;;;4.900001;4.450001;;;;;;;12.05;77.72656;95272.85;;;;
2022/08/23 00:06:48;;;;;;;4.900001;4.450001;;;;;;;12.05;77.72656;95272.85;;;;
2022/08/23 00:07:51;;;;;;;6.9;5.05;;;;;;;11.9;77.98145;95260.49;;;;
2022/08/23 00:08:52;;;;;;;6.9;5.05;;;;;;;11.9;77.98145;95260.49;;;;
2022/08/23 00:09:53;;;;;;;6.9;5.05;;;;;;;11.9;77.98145;95260.49;;;;
2022/08/23 00:10:53;;;;;;;6.9;5.05;;;;;;;11.9;77.98145;95260.49;;;;
2022/08/23 00:11:54;;;;;;;6.9;5.05;;;;;;;11.9;77.98145;95260.49;;;;
2022/08/23 00:13:04;;;;;;;6.9;5.05;;;;;;;11.9;77.98145;95260.49;;;;
2022/08/23 00:14:05;;;;;;;6.9;5.05;;;;;;;11.9;77.98145;95260.49;;;;
2022/08/23 00:15:08;;;;;;;6.9;5.05;;;;;;;11.9;77.98145;95260.49;;;;
2022/08/23 00:16:12;;;;;;;6.9;5.05;;;;;;;11.9;77.98145;95260.49;;;;
2022/08/23 00:17:13;;;;;;;6.9;5.05;;;;;;;11.9;77.98145;95260.49;;;;
2022/08/23 00:18:15;;;;;;;5.5;4.799999;;;;;;;11.8;78.2666;95263.12;;;;
2022/08/23 00:19:16;;;;;;;5.5;4.799999;;;;;;;11.8;78.2666;95263.12;;;;
2022/08/23 00:20:19;;;;;;;5.5;4.799999;;;;;;;11.8;78.2666;95263.12;;;;
2022/08/23 00:21:20;;;;;;;5.5;4.799999;;;;;;;11.8;78.2666;95263.12;;;;
2022/08/23 00:22:21;;;;;;;5.5;4.799999;;;;;;;11.8;78.2666;95263.12;;;;
2022/08/23 00:23:22;;;;;;;5.5;4.799999;;;;;;;11.8;78.2666;95263.12;;;;
2022/08/23 00:24:22;;;;;;;5.5;4.799999;;;;;;;11.8;78.2666;95263.12;;;;
2022/08/23 00:25:24;;;;;;;5.5;4.799999;;;;;;;11.8;78.2666;95263.12;;;;
2022/08/23 00:26:24;;;;;;;5.5;4.799999;;;;;;;11.8;78.2666;95263.12;;;;
2022/08/23 00:27:25;;;;;;;5.5;4.799999;;;;;;;11.8;78.2666;95263.12;;;;
2022/08/23 00:28:26;;;;;;;5.5;4.799999;;;;;;;11.8;78.2666;95263.12;;;;
2022/08/23 00:29:27;;;;;;;5.55;4.95;;;;;;;11.67;78.52344;95267.35;;;;
2022/08/23 00:30:30;;;;;;;5.55;4.95;;;;;;;11.67;78.52344;95267.35;;;;
2022/08/23 00:31:31;;;;;;;5.55;4.95;;;;;;;11.67;78.52344;95267.35;;;;
2022/08/23 00:32:31;;;;;;;5.55;4.95;;;;;;;11.67;78.52344;95267.35;;;;
2022/08/23 00:33:35;;;;;;;5.55;4.95;;;;;;;11.67;78.52344;95267.35;;;;
2022/08/23 00:34:36;;;;;;;5.55;4.95;;;;;;;11.67;78.52344;95267.35;;;;
2022/08/23 00:35:37;;;;;;;5.55;4.95;;;;;;;11.67;78.52344;95267.35;;;;
2022/08/23 00:36:38;;;;;;;5.55;4.95;;;;;;;11.67;78.52344;95267.35;;;;
2022/08/23 00:37:38;;;;;;;5.55;4.95;;;;;;;11.67;78.52344;95267.35;;;;
2022/08/23 00:38:39;;;;;;;5.55;4.95;;;;;;;11.67;78.52344;95267.35;;;;
2022/08/23 00:39:40;;;;;;;5.95;5.2;;;;;;;11.6;78.74707;95259.44;;;;
2022/08/23 00:40:41;;;;;;;5.95;5.2;;;;;;;11.6;78.74707;95259.44;;;;
2022/08/23 00:41:43;;;;;;;5.95;5.2;;;;;;;11.6;78.74707;95259.44;;;;
2022/08/23 00:47:58;;;;;;;5.95;5.2;;;;;;;11.6;78.74707;95259.44;;;;
2022/08/23 00:48:59;;;;;;;5.95;5.2;;;;;;;11.6;78.74707;95259.44;;;;
2022/08/23 00:50:03;;;;;;;5.95;5.2;;;;;;;11.6;78.74707;95259.44;;;;
2022/08/23 00:51:14;;;;;;;5.8;5.25;;;;;;;11.45;79;95251.43;;;;
2022/08/23 00:52:19;;;;;;;5.8;5.25;;;;;;;11.45;79;95251.43;;;;
2022/08/23 00:53:25;;;;;;;5.8;5.25;;;;;;;11.45;79;95251.43;;;;
2022/08/23 00:54:29;;;;;;;5.8;5.25;;;;;;;11.45;79;95251.43;;;;
2022/08/23 00:55:31;;;;;;;5.8;5.25;;;;;;;11.45;79;95251.43;;;;
2022/08/23 00:56:33;;;;;;;5.8;5.25;;;;;;;11.45;79;95251.43;;;;
2022/08/23 00:57:36;;;;;;;5.8;5.25;;;;;;;11.45;79;95251.43;;;;
2022/08/23 00:58:36;;;;;;;5.8;5.25;;;;;;;11.45;79;95251.43;;;;
2022/08/23 00:59:37;;;;;;;5.8;5.25;;;;;;;11.45;79;95251.43;;;;
2022/08/23 01:00:39;;;;;;;5.8;5.25;;;;;;;11.45;79;95251.43;;;;
2022/08/23 01:01:41;;;;;;;6.050001;5.45;;;;;;;11.38;79.23438;95248.56;;;;
2022/08/23 01:02:41;;;;;;;6.050001;5.45;;;;;;;11.38;79.23438;95248.56;;;;
2022/08/23 01:03:45;;;;;;;6.050001;5.45;;;;;;;11.38;79.23438;95248.56;;;;
2022/08/23 01:04:50;;;;;;;6.050001;5.45;;;;;;;11.38;79.23438;95248.56;;;;
2022/08/23 01:05:56;;;;;;;6.050001;5.45;;;;;;;11.38;79.23438;95248.56;;;;
2022/08/23 01:07:05;;;;;;;6.050001;5.45;;;;;;;11.38;79.23438;95248.56;;;;
2022/08/23 01:08:14;;;;;;;6.050001;5.45;;;;;;;11.38;79.23438;95248.56;;;;
2022/08/23 01:09:15;;;;;;;6.050001;5.45;;;;;;;11.38;79.23438;95248.56;;;;
2022/08/23 01:10:19;;;;;;;6.050001;5.45;;;;;;;11.38;79.23438;95248.56;;;;
2022/08/23 01:11:27;;;;;;;5.900001;5.35;;;;;;;11.24;79.45605;95254.97;;;;
2022/08/23 01:12:32;;;;;;;5.900001;5.35;;;;;;;11.24;79.45605;95254.97;;;;
2022/08/23 01:13:38;;;;;;;5.900001;5.35;;;;;;;11.24;79.45605;95254.97;;;;
2022/08/23 01:14:44;;;;;;;5.900001;5.35;;;;;;;11.24;79.45605;95254.97;;;;
2022/08/23 01:15:50;;;;;;;5.900001;5.35;;;;;;;11.24;79.45605;95254.97;;;;
2022/08/23 01:16:54;;;;;;;5.900001;5.35;;;;;;;11.24;79.45605;95254.97;;;;
2022/08/23 01:18:02;;;;;;;5.900001;5.35;;;;;;;11.24;79.45605;95254.97;;;;
2022/08/23 01:19:06;;;;;;;5.900001;5.35;;;;;;;11.24;79.45605;95254.97;;;;
2022/08/23 01:20:15;;;;;;;5.900001;5.35;;;;;;;11.24;79.45605;95254.97;;;;
2022/08/23 01:21:19;;;;;;;5.900001;5.35;;;;;;;11.24;79.45605;95254.97;;;;
2022/08/23 01:22:26;;;;;;;6.649999;6.050001;;;;;;;11.17;79.7041;95252.79;;;;
2022/08/23 01:23:33;;;;;;;6.649999;6.050001;;;;;;;11.17;79.7041;95252.79;;;;
2022/08/23 01:24:39;;;;;;;6.649999;6.050001;;;;;;;11.17;79.7041;95252.79;;;;
2022/08/23 01:25:41;;;;;;;6.649999;6.050001;;;;;;;11.17;79.7041;95252.79;;;;
2022/08/23 01:26:42;;;;;;;6.649999;6.050001;;;;;;;11.17;79.7041;95252.79;;;;
2022/08/23 01:27:43;;;;;;;6.649999;6.050001;;;;;;;11.17;79.7041;95252.79;;;;
2022/08/23 01:28:43;;;;;;;6.649999;6.050001;;;;;;;11.17;79.7041;95252.79;;;;
2022/08/23 01:29:44;;;;;;;6.649999;6.050001;;;;;;;11.17;79.7041;95252.79;;;;
2022/08/23 01:30:45;;;;;;;6.649999;6.050001;;;;;;;11.17;79.7041;95252.79;;;;
2022/08/23 01:31:46;;;;;;;6.649999;6.050001;;;;;;;11.17;79.7041;95252.79;;;;
2022/08/23 01:32:47;;;;;;;6.949999;6.25;;;;;;;11.1;79.99023;95256.52;;;;
2022/08/23 01:33:51;;;;;;;6.949999;6.25;;;;;;;11.1;79.99023;95256.52;;;;
2022/08/23 01:34:56;;;;;;;6.949999;6.25;;;;;;;11.1;79.99023;95256.52;;;;
2022/08/23 01:35:57;;;;;;;6.949999;6.25;;;;;;;11.1;79.99023;95256.52;;;;
2022/08/23 01:37:00;;;;;;;6.949999;6.25;;;;;;;11.1;79.99023;95256.52;;;;
2022/08/23 01:38:03;;;;;;;6.949999;6.25;;;;;;;11.1;79.99023;95256.52;;;;
2022/08/23 01:39:06;;;;;;;6.949999;6.25;;;;;;;11.1;79.99023;95256.52;;;;
2022/08/23 01:40:07;;;;;;;6.949999;6.25;;;;;;;11.1;79.99023;95256.52;;;;
2022/08/23 01:41:09;;;;;;;6.949999;6.25;;;;;;;11.1;79.99023;95256.52;;;;
2022/08/23 01:42:09;;;;;;;6.949999;6.25;;;;;;;11.1;79.99023;95256.52;;;;
2022/08/23 01:43:11;;;;;;;6.949999;6.25;;;;;;;11.1;79.99023;95256.52;;;;
2022/08/23 01:44:13;;;;;;;7.299999;6.6;;;;;;;11.12;80.28516;95264.12;;;;
2022/08/23 01:45:13;;;;;;;7.299999;6.6;;;;;;;11.12;80.28516;95264.12;;;;
2022/08/23 01:46:16;;;;;;;7.299999;6.6;;;;;;;11.12;80.28516;95264.12;;;;
2022/08/23 01:47:20;;;;;;;7.299999;6.6;;;;;;;11.12;80.28516;95264.12;;;;
2022/08/23 01:48:20;;;;;;;7.299999;6.6;;;;;;;11.12;80.28516;95264.12;;;;
2022/08/23 01:49:22;;;;;;;7.299999;6.6;;;;;;;11.12;80.28516;95264.12;;;;
2022/08/23 01:50:22;;;;;;;7.299999;6.6;;;;;;;11.12;80.28516;95264.12;;;;
2022/08/23 01:51:24;;;;;;;7.299999;6.6;;;;;;;11.12;80.28516;95264.12;;;;
2022/08/23 01:52:25;;;;;;;7.299999;6.6;;;;;;;11.12;80.28516;95264.12;;;;
2022/08/23 01:53:25;;;;;;;7.299999;6.6;;;;;;;11.12;80.28516;95264.12;;;;
2022/08/23 01:54:26;;;;;;;7.4;6.1;;;;;;;11.04;80.45215;95270.59;;;;
2022/08/23 01:55:26;;;;;;;7.4;6.1;;;;;;;11.04;80.45215;95270.59;;;;
2022/08/23 01:56:28;;;;;;;7.4;6.1;;;;;;;11.04;80.45215;95270.59;;;;
2022/08/23 01:57:29;;;;;;;7.4;6.1;;;;;;;11.04;80.45215;95270.59;;;;
2022/08/23 01:58:31;;;;;;;7.4;6.1;;;;;;;11.04;80.45215;95270.59;;;;
2022/08/23 01:59:33;;;;;;;7.4;6.1;;;;;;;11.04;80.45215;95270.59;;;;
2022/08/23 02:00:34;;;;;;;7.4;6.1;;;;;;;11.04;80.45215;95270.59;;;;
2022/08/23 02:01:38;;;;;;;7.4;6.1;;;;;;;11.04;80.45215;95270.59;;;;
2022/08/23 02:02:39;;;;;;;7.4;6.1;;;;;;;11.04;80.45215;95270.59;;;;
2022/08/23 02:03:39;;;;;;;7.4;6.1;;;;;;;11.04;80.45215;95270.59;;;;
2022/08/23 02:04:40;;;;;;;7.4;6.1;;;;;;;11.04;80.45215;95270.59;;;;
2022/08/23 02:05:41;;;;;;;6.400001;5.799999;;;;;;;10.99;80.74707;95280.5;;;;
2022/08/23 02:06:42;;;;;;;6.400001;5.799999;;;;;;;10.99;80.74707;95280.5;;;;
2022/08/23 02:07:42;;;;;;;6.400001;5.799999;;;;;;;10.99;80.74707;95280.5;;;;
2022/08/23 02:09:15;;;;;;;6.400001;5.799999;;;;;;;10.99;80.74707;95280.5;;;;
2022/08/23 02:10:16;;;;;;;6.400001;5.799999;;;;;;;10.99;80.74707;95280.5;;;;
2022/08/23 02:11:17;;;;;;;6.400001;5.799999;;;;;;;10.99;80.74707;95280.5;;;;
2022/08/23 02:12:20;;;;;;;6.400001;5.799999;;;;;;;10.99;80.74707;95280.5;;;;
2022/08/23 02:13:20;;;;;;;6.400001;5.799999;;;;;;;10.99;80.74707;95280.5;;;;
2022/08/23 02:14:22;;;;;;;6.400001;5.799999;;;;;;;10.99;80.74707;95280.5;;;;
2022/08/23 02:15:22;;;;;;;6.400001;5.799999;;;;;;;10.99;80.74707;95280.5;;;;
2022/08/23 02:16:23;;;;;;;8.150001;6.250001;;;;;;;10.9;80.9209;95284.53;;;;
2022/08/23 02:17:26;;;;;;;8.150001;6.250001;;;;;;;10.9;80.9209;95284.53;;;;
2022/08/23 02:18:27;;;;;;;8.150001;6.250001;;;;;;;10.9;80.9209;95284.53;;;;
2022/08/23 02:19:28;;;;;;;8.150001;6.250001;;;;;;;10.9;80.9209;95284.53;;;;
2022/08/23 02:20:29;;;;;;;8.150001;6.250001;;;;;;;10.9;80.9209;95284.53;;;;
2022/08/23 02:21:30;;;;;;;8.150001;6.250001;;;;;;;10.9;80.9209;95284.53;;;;
2022/08/23 02:22:32;;;;;;;8.150001;6.250001;;;;;;;10.9;80.9209;95284.53;;;;
2022/08/23 02:23:33;;;;;;;8.150001;6.250001;;;;;;;10.9;80.9209;95284.53;;;;
2022/08/23 02:24:34;;;;;;;8.150001;6.250001;;;;;;;10.9;80.9209;95284.53;;;;
2022/08/23 02:25:39;;;;;;;8.150001;6.250001;;;;;;;10.9;80.9209;95284.53;;;;
2022/08/23 02:26:39;;;;;;;7.149999;6.45;;;;;;;10.84;81.17969;95299.43;;;;
2022/08/23 02:27:47;;;;;;;7.149999;6.45;;;;;;;10.84;81.17969;95299.43;;;;
2022/08/23 02:28:47;;;;;;;7.149999;6.45;;;;;;;10.84;81.17969;95299.43;;;;
2022/08/23 02:29:49;;;;;;;7.149999;6.45;;;;;;;10.84;81.17969;95299.43;;;;
2022/08/23 02:30:50;;;;;;;7.149999;6.45;;;;;;;10.84;81.17969;95299.43;;;;
2022/08/23 02:31:51;;;;;;;7.149999;6.45;;;;;;;10.84;81.17969;95299.43;;;;
2022/08/23 02:32:51;;;;;;;7.149999;6.45;;;;;;;10.84;81.17969;95299.43;;;;
2022/08/23 02:33:52;;;;;;;7.149999;6.45;;;;;;;10.84;81.17969;95299.43;;;;
2022/08/23 02:34:52;;;;;;;7.149999;6.45;;;;;;;10.84;81.17969;95299.43;;;;
2022/08/23 02:35:53;;;;;;;7.149999;6.45;;;;;;;10.84;81.17969;95299.43;;;;
2022/08/23 02:36:54;;;;;;;6.349999;5.799999;;;;;;;10.7;81.33594;95299.72;;;;
2022/08/23 02:37:55;;;;;;;6.349999;5.799999;;;;;;;10.7;81.33594;95299.72;;;;
2022/08/23 02:38:55;;;;;;;6.349999;5.799999;;;;;;;10.7;81.33594;95299.72;;;;
2022/08/23 02:39:56;;;;;;;6.349999;5.799999;;;;;;;10.7;81.33594;95299.72;;;;
2022/08/23 02:40:56;;;;;;;6.349999;5.799999;;;;;;;10.7;81.33594;95299.72;;;;
2022/08/23 02:41:57;;;;;;;6.349999;5.799999;;;;;;;10.7;81.33594;95299.72;;;;
2022/08/23 02:42:58;;;;;;;6.349999;5.799999;;;;;;;10.7;81.33594;95299.72;;;;
2022/08/23 02:43:59;;;;;;;6.349999;5.799999;;;;;;;10.7;81.33594;95299.72;;;;
2022/08/23 02:44:59;;;;;;;6.349999;5.799999;;;;;;;10.7;81.33594;95299.72;;;;
2022/08/23 02:46:00;;;;;;;6.349999;5.799999;;;;;;;10.7;81.33594;95299.72;;;;
2022/08/23 02:47:00;;;;;;;6.349999;5.799999;;;;;;;10.7;81.33594;95299.72;;;;
2022/08/23 02:48:01;;;;;;;7.3;6.6;;;;;;;10.62;81.56738;95310.55;;;;
2022/08/23 02:49:03;;;;;;;7.3;6.6;;;;;;;10.62;81.56738;95310.55;;;;
2022/08/23 02:50:03;;;;;;;7.3;6.6;;;;;;;10.62;81.56738;95310.55;;;;
2022/08/23 02:51:06;;;;;;;7.3;6.6;;;;;;;10.62;81.56738;95310.55;;;;
2022/08/23 02:52:07;;;;;;;7.3;6.6;;;;;;;10.62;81.56738;95310.55;;;;
2022/08/23 02:53:08;;;;;;;7.3;6.6;;;;;;;10.62;81.56738;95310.55;;;;
2022/08/23 02:54:08;;;;;;;7.3;6.6;;;;;;;10.62;81.56738;95310.55;;;;
2022/08/23 02:55:10;;;;;;;7.3;6.6;;;;;;;10.62;81.56738;95310.55;;;;
2022/08/23 02:56:10;;;;;;;7.3;6.6;;;;;;;10.62;81.56738;95310.55;;;;
2022/08/23 02:57:12;;;;;;;7.3;6.6;;;;;;;10.62;81.56738;95310.55;;;;
2022/08/23 02:58:12;;;;;;;7.750001;6.249999;;;;;;;10.49;81.7373;95314.45;;;;
2022/08/23 02:59:13;;;;;;;7.750001;6.249999;;;;;;;10.49;81.7373;95314.45;;;;
2022/08/23 03:00:14;;;;;;;7.750001;6.249999;;;;;;;10.49;81.7373;95314.45;;;;
2022/08/23 03:01:17;;;;;;;7.750001;6.249999;;;;;;;10.49;81.7373;95314.45;;;;
2022/08/23 03:02:19;;;;;;;7.750001;6.249999;;;;;;;10.49;81.7373;95314.45;;;;
2022/08/23 03:03:20;;;;;;;7.750001;6.249999;;;;;;;10.49;81.7373;95314.45;;;;
2022/08/23 03:04:21;;;;;;;7.750001;6.249999;;;;;;;10.49;81.7373;95314.45;;;;
2022/08/23 03:05:22;;;;;;;7.750001;6.249999;;;;;;;10.49;81.7373;95314.45;;;;
2022/08/23 03:06:23;;;;;;;7.750001;6.249999;;;;;;;10.49;81.7373;95314.45;;;;
2022/08/23 03:07:24;;;;;;;7.750001;6.249999;;;;;;;10.49;81.7373;95314.45;;;;
2022/08/23 03:08:24;;;;;;;7.750001;6.249999;;;;;;;10.49;81.7373;95314.45;;;;
2022/08/23 03:09:25;;;;;;;10.9;6.699999;;;;;;;10.43;81.93945;95322.81;;;;
2022/08/23 03:10:25;;;;;;;10.9;6.699999;;;;;;;10.43;81.93945;95322.81;;;;
2022/08/23 03:11:26;;;;;;;10.9;6.699999;;;;;;;10.43;81.93945;95322.81;;;;
2022/08/23 03:12:27;;;;;;;10.9;6.699999;;;;;;;10.43;81.93945;95322.81;;;;
2022/08/23 03:13:27;;;;;;;10.9;6.699999;;;;;;;10.43;81.93945;95322.81;;;;
2022/08/23 03:14:28;;;;;;;10.9;6.699999;;;;;;;10.43;81.93945;95322.81;;;;
2022/08/23 03:15:28;;;;;;;10.9;6.699999;;;;;;;10.43;81.93945;95322.81;;;;
2022/08/23 03:16:29;;;;;;;10.9;6.699999;;;;;;;10.43;81.93945;95322.81;;;;
2022/08/23 03:17:29;;;;;;;10.9;6.699999;;;;;;;10.43;81.93945;95322.81;;;;
2022/08/23 03:18:30;;;;;;;10.9;6.699999;;;;;;;10.43;81.93945;95322.81;;;;
2022/08/23 03:19:31;;;;;;;7.5;6.7;;;;;;;10.32;82.10352;95330.49;;;;
2022/08/23 03:20:32;;;;;;;7.5;6.7;;;;;;;10.32;82.10352;95330.49;;;;
2022/08/23 03:21:32;;;;;;;7.5;6.7;;;;;;;10.32;82.10352;95330.49;;;;
2022/08/23 03:22:33;;;;;;;7.5;6.7;;;;;;;10.32;82.10352;95330.49;;;;
2022/08/23 03:23:34;;;;;;;7.5;6.7;;;;;;;10.32;82.10352;95330.49;;;;
2022/08/23 03:24:36;;;;;;;7.5;6.7;;;;;;;10.32;82.10352;95330.49;;;;
2022/08/23 03:25:36;;;;;;;7.5;6.7;;;;;;;10.32;82.10352;95330.49;;;;
2022/08/23 03:26:37;;;;;;;7.5;6.7;;;;;;;10.32;82.10352;95330.49;;;;
2022/08/23 03:27:42;;;;;;;7.5;6.7;;;;;;;10.32;82.10352;95330.49;;;;
2022/08/23 03:28:43;;;;;;;7.5;6.7;;;;;;;10.32;82.10352;95330.49;;;;
2022/08/23 03:29:44;;;;;;;7.5;6.7;;;;;;;10.32;82.10352;95330.49;;;;
2022/08/23 03:30:45;;;;;;;8.849999;6.8;;;;;;;10.29;82.31055;95335.38;;;;
2022/08/23 03:31:45;;;;;;;8.849999;6.8;;;;;;;10.29;82.31055;95335.38;;;;
2022/08/23 03:32:46;;;;;;;8.849999;6.8;;;;;;;10.29;82.31055;95335.38;;;;
2022/08/23 03:33:46;;;;;;;8.849999;6.8;;;;;;;10.29;82.31055;95335.38;;;;
2022/08/23 03:34:47;;;;;;;8.849999;6.8;;;;;;;10.29;82.31055;95335.38;;;;
2022/08/23 03:35:47;;;;;;;8.849999;6.8;;;;;;;10.29;82.31055;95335.38;;;;
2022/08/23 03:36:49;;;;;;;8.849999;6.8;;;;;;;10.29;82.31055;95335.38;;;;
2022/08/23 03:37:52;;;;;;;8.849999;6.8;;;;;;;10.29;82.31055;95335.38;;;;
2022/08/23 03:38:53;;;;;;;8.849999;6.8;;;;;;;10.29;82.31055;95335.38;;;;
2022/08/23 03:39:53;;;;;;;8.849999;6.8;;;;;;;10.29;82.31055;95335.38;;;;
2022/08/23 03:40:54;;;;;;;8.150001;6.400001;;;;;;;10.18;82.42871;95361.53;;;;
2022/08/23 03:41:54;;;;;;;8.150001;6.400001;;;;;;;10.18;82.42871;95361.53;;;;
2022/08/23 03:42:55;;;;;;;8.150001;6.400001;;;;;;;10.18;82.42871;95361.53;;;;
2022/08/23 03:43:55;;;;;;;8.150001;6.400001;;;;;;;10.18;82.42871;95361.53;;;;
2022/08/23 03:44:56;;;;;;;8.150001;6.400001;;;;;;;10.18;82.42871;95361.53;;;;
2022/08/23 03:45:56;;;;;;;8.150001;6.400001;;;;;;;10.18;82.42871;95361.53;;;;
2022/08/23 03:46:57;;;;;;;8.150001;6.400001;;;;;;;10.18;82.42871;95361.53;;;;
2022/08/23 03:47:57;;;;;;;8.150001;6.400001;;;;;;;10.18;82.42871;95361.53;;;;
2022/08/23 03:48:58;;;;;;;8.150001;6.400001;;;;;;;10.18;82.42871;95361.53;;;;
2022/08/23 03:50:00;;;;;;;8.150001;6.400001;;;;;;;10.18;82.42871;95361.53;;;;
2022/08/23 03:51:01;;;;;;;8.150001;6.400001;;;;;;;10.18;82.42871;95361.53;;;;
2022/08/23 03:52:02;;;;;;;8.150001;6.400001;;;;;;;10.18;82.42871;95361.53;;;;
2022/08/23 03:53:03;;;;;;;8.150001;6.400001;;;;;;;10.18;82.42871;95361.53;;;;
2022/08/23 03:54:04;;;;;;;8.150001;6.400001;;;;;;;10.18;82.42871;95361.53;;;;
2022/08/23 03:55:05;;;;;;;8.150001;6.400001;;;;;;;10.18;82.42871;95361.53;;;;
2022/08/23 03:56:06;;;;;;;8.150001;6.400001;;;;;;;10.18;82.42871;95361.53;;;;
2022/08/23 03:57:08;;;;;;;8.150001;6.400001;;;;;;;10.18;82.42871;95361.53;;;;
2022/08/23 03:58:08;;;;;;;8.150001;6.400001;;;;;;;10.18;82.42871;95361.53;;;;
2022/08/23 03:59:10;;;;;;;8.150001;6.400001;;;;;;;10.18;82.42871;95361.53;;;;
2022/08/23 04:00:10;;;;;;;8.150001;6.400001;;;;;;;10.18;82.42871;95361.53;;;;
2022/08/23 04:01:14;;;;;;;8.150001;6.400001;;;;;;;10.18;82.42871;95361.53;;;;
2022/08/23 04:02:14;;;;;;;7.550002;6.75;;;;;;;10.06;82.74023;95360.91;;;;
2022/08/23 04:03:15;;;;;;;7.550002;6.75;;;;;;;10.06;82.74023;95360.91;;;;
2022/08/23 04:04:16;;;;;;;7.550002;6.75;;;;;;;10.06;82.74023;95360.91;;;;
2022/08/23 04:05:17;;;;;;;7.550002;6.75;;;;;;;10.06;82.74023;95360.91;;;;
2022/08/23 04:06:17;;;;;;;7.550002;6.75;;;;;;;10.06;82.74023;95360.91;;;;
2022/08/23 04:07:18;;;;;;;7.550002;6.75;;;;;;;10.06;82.74023;95360.91;;;;
2022/08/23 04:08:19;;;;;;;7.550002;6.75;;;;;;;10.06;82.74023;95360.91;;;;
2022/08/23 04:09:20;;;;;;;7.550002;6.75;;;;;;;10.06;82.74023;95360.91;;;;
2022/08/23 04:10:21;;;;;;;7.550002;6.75;;;;;;;10.06;82.74023;95360.91;;;;
2022/08/23 04:11:21;;;;;;;7.550002;6.75;;;;;;;10.06;82.74023;95360.91;;;;
2022/08/23 04:12:23;;;;;;;7.550002;6.75;;;;;;;10.06;82.74023;95360.91;;;;
2022/08/23 04:13:24;;;;;;;9.800001;6.450001;;;;;;;10.06;82.89844;95361.41;;;;
2022/08/23 04:14:25;;;;;;;9.800001;6.450001;;;;;;;10.06;82.89844;95361.41;;;;
2022/08/23 04:15:25;;;;;;;9.800001;6.450001;;;;;;;10.06;82.89844;95361.41;;;;
2022/08/23 04:16:27;;;;;;;9.800001;6.450001;;;;;;;10.06;82.89844;95361.41;;;;
2022/08/23 04:17:28;;;;;;;9.800001;6.450001;;;;;;;10.06;82.89844;95361.41;;;;
2022/08/23 04:18:30;;;;;;;9.800001;6.450001;;;;;;;10.06;82.89844;95361.41;;;;
2022/08/23 04:19:32;;;;;;;9.800001;6.450001;;;;;;;10.06;82.89844;95361.41;;;;
2022/08/23 04:20:33;;;;;;;9.800001;6.450001;;;;;;;10.06;82.89844;95361.41;;;;
2022/08/23 04:21:33;;;;;;;9.800001;6.450001;;;;;;;10.06;82.89844;95361.41;;;;
2022/08/23 04:22:36;;;;;;;9.800001;6.450001;;;;;;;10.06;82.89844;95361.41;;;;
2022/08/23 04:23:38;;;;;;;7.149999;6.45;;;;;;;10;82.99512;95373.22;;;;
2022/08/23 04:24:39;;;;;;;7.149999;6.45;;;;;;;10;82.99512;95373.22;;;;
2022/08/23 04:25:42;;;;;;;7.149999;6.45;;;;;;;10;82.99512;95373.22;;;;
2022/08/23 04:26:42;;;;;;;7.149999;6.45;;;;;;;10;82.99512;95373.22;;;;
2022/08/23 04:27:43;;;;;;;7.149999;6.45;;;;;;;10;82.99512;95373.22;;;;
2022/08/23 04:28:43;;;;;;;7.149999;6.45;;;;;;;10;82.99512;95373.22;;;;
2022/08/23 04:29:44;;;;;;;7.149999;6.45;;;;;;;10;82.99512;95373.22;;;;
2022/08/23 04:30:44;;;;;;;7.149999;6.45;;;;;;;10;82.99512;95373.22;;;;
2022/08/23 04:31:45;;;;;;;7.149999;6.45;;;;;;;10;82.99512;95373.22;;;;
2022/08/23 04:32:46;;;;;;;7.149999;6.45;;;;;;;10;82.99512;95373.22;;;;
2022/08/23 04:33:46;;;;;;;7.149999;6.45;;;;;;;10;82.99512;95373.22;;;;
2022/08/23 04:34:48;;;;;;;7.400001;6.450001;;;;;;;10.01;83.0957;95372.19;;;;
2022/08/23 04:35:48;;;;;;;7.400001;6.450001;;;;;;;10.01;83.0957;95372.19;;;;
2022/08/23 04:36:49;;;;;;;7.400001;6.450001;;;;;;;10.01;83.0957;95372.19;;;;
2022/08/23 04:37:49;;;;;;;7.400001;6.450001;;;;;;;10.01;83.0957;95372.19;;;;
2022/08/23 04:38:50;;;;;;;7.400001;6.450001;;;;;;;10.01;83.0957;95372.19;;;;
2022/08/23 04:45:01;;;;;;;7.649999;6.95;;;;;;;9.98;83.19531;95384.08;;;;
2022/08/23 04:46:04;;;;;;;7.649999;6.95;;;;;;;9.98;83.19531;95384.08;;;;
2022/08/23 04:47:05;;;;;;;7.649999;6.95;;;;;;;9.98;83.19531;95384.08;;;;
2022/08/23 04:48:05;;;;;;;7.649999;6.95;;;;;;;9.98;83.19531;95384.08;;;;
2022/08/23 04:49:06;;;;;;;7.649999;6.95;;;;;;;9.98;83.19531;95384.08;;;;
2022/08/23 04:50:07;;;;;;;7.649999;6.95;;;;;;;9.98;83.19531;95384.08;;;;
2022/08/23 04:51:07;;;;;;;7.649999;6.95;;;;;;;9.98;83.19531;95384.08;;;;
2022/08/23 04:52:08;;;;;;;7.649999;6.95;;;;;;;9.98;83.19531;95384.08;;;;
2022/08/23 04:53:08;;;;;;;7.649999;6.95;;;;;;;9.98;83.19531;95384.08;;;;
2022/08/23 04:54:10;;;;;;;7.649999;6.95;;;;;;;9.98;83.19531;95384.08;;;;
2022/08/23 04:55:11;;;;;;;7.649999;6.95;;;;;;;9.98;83.19531;95384.08;;;;
2022/08/23 04:56:12;;;;;;;7.5;6.7;;;;;;;10.1;83.34766;95377.98;;;;
2022/08/23 04:57:14;;;;;;;7.5;6.7;;;;;;;10.1;83.34766;95377.98;;;;
2022/08/23 04:58:15;;;;;;;7.5;6.7;;;;;;;10.1;83.34766;95377.98;;;;
2022/08/23 04:59:16;;;;;;;7.5;6.7;;;;;;;10.1;83.34766;95377.98;;;;
2022/08/23 05:00:16;;;;;;;7.5;6.7;;;;;;;10.1;83.34766;95377.98;;;;
2022/08/23 05:01:17;;;;;;;7.5;6.7;;;;;;;10.1;83.34766;95377.98;;;;
2022/08/23 05:02:19;;;;;;;7.5;6.7;;;;;;;10.1;83.34766;95377.98;;;;
2022/08/23 05:03:19;;;;;;;7.5;6.7;;;;;;;10.1;83.34766;95377.98;;;;
2022/08/23 05:04:20;;;;;;;7.5;6.7;;;;;;;10.1;83.34766;95377.98;;;;
2022/08/23 05:05:20;;;;;;;7.5;6.7;;;;;;;10.1;83.34766;95377.98;;;;
2022/08/23 05:06:21;;;;;;;8.699999;7.099999;;;;;;;10.23;83.46875;95388.51;;;;
2022/08/23 05:07:22;;;;;;;8.699999;7.099999;;;;;;;10.23;83.46875;95388.51;;;;
2022/08/23 05:08:22;;;;;;;8.699999;7.099999;;;;;;;10.23;83.46875;95388.51;;;;
2022/08/23 05:09:23;;;;;;;8.699999;7.099999;;;;;;;10.23;83.46875;95388.51;;;;
2022/08/23 05:10:24;;;;;;;8.699999;7.099999;;;;;;;10.23;83.46875;95388.51;;;;
2022/08/23 05:11:25;;;;;;;8.699999;7.099999;;;;;;;10.23;83.46875;95388.51;;;;
2022/08/23 05:12:25;;;;;;;8.699999;7.099999;;;;;;;10.23;83.46875;95388.51;;;;
2022/08/23 05:13:26;;;;;;;8.699999;7.099999;;;;;;;10.23;83.46875;95388.51;;;;
2022/08/23 05:14:26;;;;;;;8.699999;7.099999;;;;;;;10.23;83.46875;95388.51;;;;
2022/08/23 05:15:27;;;;;;;8.699999;7.099999;;;;;;;10.23;83.46875;95388.51;;;;
2022/08/23 05:16:27;;;;;;;8.699999;7.099999;;;;;;;10.23;83.46875;95388.51;;;;
2022/08/23 05:17:28;;;;;;;7.750001;6.95;;;;;;;10.52;83.41699;95400.83;;;;
2022/08/23 05:18:28;;;;;;;7.750001;6.95;;;;;;;10.52;83.41699;95400.83;;;;
2022/08/23 05:19:29;;;;;;;7.750001;6.95;;;;;;;10.52;83.41699;95400.83;;;;
2022/08/23 05:20:30;;;;;;;7.750001;6.95;;;;;;;10.52;83.41699;95400.83;;;;
2022/08/23 05:21:30;;;;;;;7.750001;6.95;;;;;;;10.52;83.41699;95400.83;;;;
2022/08/23 05:22:31;;;;;;;7.750001;6.95;;;;;;;10.52;83.41699;95400.83;;;;
2022/08/23 05:23:32;;;;;;;7.750001;6.95;;;;;;;10.52;83.41699;95400.83;;;;
2022/08/23 05:24:33;;;;;;;7.750001;6.95;;;;;;;10.52;83.41699;95400.83;;;;
2022/08/23 05:25:49;;;;;;;7.750001;6.95;;;;;;;10.52;83.41699;95400.83;;;;
2022/08/23 05:26:51;;;;;;;7.750001;6.95;;;;;;;10.52;83.41699;95400.83;;;;
2022/08/23 05:27:51;;;;;;;9.750001;6.950001;;;;;;;10.75;83.33105;95408.68;;;;
2022/08/23 05:28:54;;;;;;;9.750001;6.950001;;;;;;;10.75;83.33105;95408.68;;;;
2022/08/23 05:29:55;;;;;;;9.750001;6.950001;;;;;;;10.75;83.33105;95408.68;;;;
2022/08/23 05:30:55;;;;;;;9.750001;6.950001;;;;;;;10.75;83.33105;95408.68;;;;
2022/08/23 05:31:58;;;;;;;9.750001;6.950001;;;;;;;10.75;83.33105;95408.68;;;;
2022/08/23 05:32:59;;;;;;;9.750001;6.950001;;;;;;;10.75;83.33105;95408.68;;;;
2022/08/23 05:34:00;;;;;;;9.750001;6.950001;;;;;;;10.75;83.33105;95408.68;;;;
2022/08/23 05:35:00;;;;;;;9.750001;6.950001;;;;;;;10.75;83.33105;95408.68;;;;
2022/08/23 05:36:01;;;;;;;9.750001;6.950001;;;;;;;10.75;83.33105;95408.68;;;;
2022/08/23 05:37:03;;;;;;;9.750001;6.950001;;;;;;;10.75;83.33105;95408.68;;;;
2022/08/23 05:38:04;;;;;;;9.750001;6.950001;;;;;;;10.75;83.33105;95408.68;;;;
2022/08/23 05:39:05;;;;;;;8.1;7;;;;;;;11.13;83.33105;95423.58;;;;
2022/08/23 05:40:06;;;;;;;8.1;7;;;;;;;11.13;83.33105;95423.58;;;;
2022/08/23 05:41:07;;;;;;;8.1;7;;;;;;;11.13;83.33105;95423.58;;;;
2022/08/23 05:42:09;;;;;;;8.1;7;;;;;;;11.13;83.33105;95423.58;;;;
2022/08/23 05:43:11;;;;;;;8.1;7;;;;;;;11.13;83.33105;95423.58;;;;
2022/08/23 05:44:13;;;;;;;8.1;7;;;;;;;11.13;83.33105;95423.58;;;;